createdAt,value
2023-01-19T00:01:27.488Z,6.40
2023-01-19T00:03:54.353Z,6.07
2023-01-19T00:06:21.317Z,6.07
2023-01-19T00:08:50.516Z,6.40
2023-01-19T00:11:18.235Z,6.47
2023-01-19T00:13:50.080Z,5.97
2023-01-19T00:16:18.812Z,6.90
2023-01-19T00:18:46.593Z,6.10
2023-01-19T00:21:17.397Z,5.35
2023-01-19T00:23:47.610Z,6.28
2023-01-19T00:26:16.659Z,6.15
2023-01-19T00:28:44.566Z,6.37
2023-01-19T00:31:12.282Z,6.20
2023-01-19T00:33:39.208Z,4.20
2023-01-19T00:36:06.314Z,2.38
2023-01-19T00:38:33.209Z,1.83
2023-01-19T00:41:00.159Z,1.70
2023-01-19T00:43:28.389Z,2.88
2023-01-19T00:45:55.396Z,3.17
2023-01-19T00:48:22.509Z,2.80
2023-01-19T00:50:49.514Z,3.10
2023-01-19T00:53:16.384Z,2.63
2023-01-19T00:55:43.262Z,3.55
2023-01-19T00:58:10.144Z,3.88
2023-01-19T01:00:37.127Z,5.63
2023-01-19T01:03:04.697Z,5.22
2023-01-19T01:05:31.919Z,5.67
2023-01-19T01:07:58.864Z,6.10
2023-01-19T01:10:28.917Z,6.40
2023-01-19T01:13:21.176Z,6.75
2023-01-19T01:15:43.180Z,5.85
2023-01-19T01:18:10.312Z,5.63
2023-01-19T01:20:37.648Z,5.93
2023-01-19T01:23:04.740Z,5.05
2023-01-19T01:25:34.211Z,5.93
2023-01-19T01:28:01.055Z,5.38
2023-01-19T01:30:27.877Z,4.10
2023-01-19T01:32:55.206Z,4.10
2023-01-19T01:35:22.024Z,3.60
2023-01-19T01:37:49.020Z,3.30
2023-01-19T01:40:18.042Z,2.72
2023-01-19T01:42:45.637Z,2.60
2023-01-19T01:45:33.482Z,2.35
2023-01-19T01:48:23.933Z,2.17
2023-01-19T01:51:39.498Z,1.65
2023-01-19T01:54:15.029Z,1.92
2023-01-19T01:56:45.489Z,2.00
2023-01-19T01:59:39.376Z,1.52
2023-01-19T02:02:30.382Z,2.03
2023-01-19T02:05:17.457Z,1.80
2023-01-19T02:08:19.831Z,2.47
2023-01-19T02:11:06.357Z,2.03
2023-01-19T02:13:35.816Z,1.60
2023-01-19T02:16:07.535Z,1.60
2023-01-19T02:18:35.205Z,1.13
2023-01-19T02:21:27.597Z,0.95
2023-01-19T02:23:56.782Z,1.40
2023-01-19T02:26:27.576Z,1.17
2023-01-19T02:29:02.046Z,0.77
2023-01-19T02:31:31.386Z,0.90
2023-01-19T02:34:00.391Z,0.80
2023-01-19T02:36:40.077Z,0.70
2023-01-19T02:39:08.786Z,0.43
2023-01-19T02:41:42.745Z,0.32
2023-01-19T02:44:11.931Z,0.38
2023-01-19T02:46:38.942Z,0.55
2023-01-19T02:49:05.727Z,0.47
2023-01-19T02:51:34.416Z,0.40
2023-01-19T02:54:20.389Z,0.30
2023-01-19T02:57:24.656Z,0.52
2023-01-19T02:59:54.488Z,0.50
2023-01-19T03:02:46.118Z,0.50
2023-01-19T03:05:19.961Z,0.30
2023-01-19T03:08:08.266Z,0.60
2023-01-19T03:10:58.011Z,0.52
2023-01-19T03:13:51.775Z,0.40
2023-01-19T03:16:25.335Z,0.50
2023-01-19T03:19:06.184Z,0.20
2023-01-19T03:21:36.401Z,0.40
2023-01-19T03:24:06.538Z,0.30
2023-01-19T03:26:39.330Z,0.20
2023-01-19T03:29:08.997Z,0.20
2023-01-19T03:31:37.856Z,0.20
2023-01-19T03:34:08.416Z,0.35
2023-01-19T03:36:45.774Z,0.20
2023-01-19T03:39:17.045Z,0.20
2023-01-19T03:41:48.416Z,0.37
2023-01-19T03:44:16.580Z,0.82
2023-01-19T03:46:46.099Z,0.38
2023-01-19T03:49:13.296Z,0.20
2023-01-19T03:51:40.706Z,0.30
2023-01-19T03:54:08.004Z,0.20
2023-01-19T03:56:34.922Z,0.20
2023-01-19T03:59:01.820Z,0.40
2023-01-19T04:01:28.957Z,0.35
2023-01-19T04:03:55.994Z,0.30
2023-01-19T04:06:23.560Z,0.20
2023-01-19T04:08:51.799Z,0.20
2023-01-19T04:11:18.839Z,0.30
2023-01-19T04:13:45.738Z,0.52
2023-01-19T04:16:13.024Z,0.30
2023-01-19T04:18:40.946Z,0.87
2023-01-19T04:21:08.277Z,0.22
2023-01-19T04:23:35.536Z,0.40
2023-01-19T04:26:05.349Z,0.30
2023-01-19T04:28:33.560Z,0.20
2023-01-19T04:31:00.860Z,0.40
2023-01-19T04:33:28.574Z,0.30
2023-01-19T04:35:56.308Z,0.40
2023-01-19T04:38:26.819Z,0.30
2023-01-19T04:40:54.787Z,0.60
2023-01-19T04:43:23.805Z,0.60
2023-01-19T04:45:51.086Z,0.20
2023-01-19T04:48:19.950Z,0.35
2023-01-19T04:50:47.501Z,0.30
2023-01-19T04:53:16.340Z,0.30
2023-01-19T04:55:43.323Z,0.50
2023-01-19T04:58:10.365Z,0.40
2023-01-19T05:00:37.299Z,0.40
2023-01-19T05:03:05.383Z,0.28
2023-01-19T05:05:33.431Z,0.30
2023-01-19T05:08:00.806Z,0.40
2023-01-19T05:10:27.838Z,0.20
2023-01-19T05:12:55.276Z,0.50
2023-01-19T05:15:22.241Z,0.40
2023-01-19T05:17:49.237Z,0.52
2023-01-19T05:20:17.589Z,0.30
2023-01-19T05:22:50.778Z,0.43
2023-01-19T05:25:18.346Z,0.68
2023-01-19T05:27:45.355Z,0.50
2023-01-19T05:30:13.758Z,0.52
2023-01-19T05:32:40.938Z,0.30
2023-01-19T05:35:08.515Z,0.30
2023-01-19T05:37:35.417Z,0.40
2023-01-19T05:40:02.336Z,0.85
2023-01-19T05:42:30.827Z,0.73
2023-01-19T05:44:59.764Z,0.60
2023-01-19T05:47:26.944Z,0.50
2023-01-19T05:49:53.769Z,0.52
2023-01-19T05:52:20.734Z,0.98
2023-01-19T05:54:48.488Z,0.40
2023-01-19T05:57:15.437Z,0.47
2023-01-19T05:59:42.332Z,0.30
2023-01-19T06:02:09.553Z,0.60
2023-01-19T06:04:36.481Z,0.60
2023-01-19T06:07:03.634Z,0.77
2023-01-19T06:09:30.596Z,0.50
2023-01-19T06:11:59.608Z,0.70
2023-01-19T06:14:27.195Z,0.35
2023-01-19T06:16:54.196Z,0.60
2023-01-19T06:19:21.109Z,0.47
2023-01-19T06:21:52.494Z,0.60
2023-01-19T06:24:19.733Z,0.60
2023-01-19T06:26:46.686Z,0.57
2023-01-19T06:29:14.707Z,0.50
2023-01-19T06:31:42.607Z,0.80
2023-01-19T06:34:09.644Z,0.77
2023-01-19T06:36:36.727Z,0.63
2023-01-19T06:39:06.145Z,0.80
2023-01-19T06:41:36.530Z,0.43
2023-01-19T06:44:03.446Z,0.50
2023-01-19T06:46:30.449Z,0.60
2023-01-19T06:48:57.600Z,0.65
2023-01-19T06:51:24.620Z,0.80
2023-01-19T06:53:51.621Z,0.95
2023-01-19T06:56:18.686Z,0.30
2023-01-19T06:58:47.986Z,1.10
2023-01-19T07:01:15.221Z,0.65
2023-01-19T07:03:42.560Z,0.68
2023-01-19T07:06:09.838Z,0.85
2023-01-19T07:08:37.928Z,0.60
2023-01-19T07:11:25.245Z,0.87
2023-01-19T07:13:55.782Z,0.63
2023-01-19T07:16:23.391Z,0.60
2023-01-19T07:18:50.466Z,0.57
2023-01-19T07:21:17.803Z,1.02
2023-01-19T07:23:44.655Z,0.80
2023-01-19T07:26:11.792Z,0.63
2023-01-19T07:28:38.746Z,0.50
2023-01-19T07:31:06.165Z,0.70
2023-01-19T07:33:33.297Z,0.32
2023-01-19T07:36:00.156Z,0.60
2023-01-19T07:38:27.100Z,1.00
2023-01-19T07:41:01.052Z,1.20
2023-01-19T07:43:27.941Z,0.70
2023-01-19T07:46:03.657Z,0.80
2023-01-19T07:48:30.640Z,0.63
2023-01-19T07:51:02.151Z,1.20
2023-01-19T07:53:29.021Z,1.05
2023-01-19T07:55:57.266Z,1.00
2023-01-19T07:58:25.331Z,1.70
2023-01-19T08:00:52.863Z,1.43
2023-01-19T08:03:21.147Z,1.02
2023-01-19T08:05:55.014Z,1.20
2023-01-19T08:08:21.838Z,1.27
2023-01-19T08:10:52.656Z,1.50
2023-01-19T08:13:19.540Z,1.47
2023-01-19T08:15:50.668Z,1.00
2023-01-19T08:18:18.138Z,1.27
2023-01-19T08:20:45.042Z,1.20
2023-01-19T08:23:12.366Z,1.42
2023-01-19T08:25:45.206Z,1.17
2023-01-19T08:28:14.872Z,1.25
2023-01-19T08:30:44.632Z,1.48
2023-01-19T08:33:12.667Z,1.17
2023-01-19T08:35:47.443Z,1.25
2023-01-19T08:38:14.461Z,0.87
2023-01-19T08:40:42.302Z,0.90
2023-01-19T08:43:12.183Z,1.42
2023-01-19T08:45:42.591Z,1.02
2023-01-19T08:48:10.508Z,0.60
2023-01-19T08:50:37.366Z,1.20
2023-01-19T08:53:07.100Z,1.63
2023-01-19T08:55:35.861Z,1.38
2023-01-19T08:58:06.471Z,1.52
2023-01-19T09:00:34.583Z,1.90
2023-01-19T09:03:04.473Z,1.80
2023-01-19T09:05:35.769Z,0.80
2023-01-19T09:08:03.875Z,1.88
2023-01-19T09:10:36.277Z,1.10
2023-01-19T09:13:05.255Z,1.05
2023-01-19T09:15:35.916Z,1.30
2023-01-19T09:18:03.586Z,1.15
2023-01-19T09:20:31.678Z,0.70
2023-01-19T09:22:58.935Z,0.95
2023-01-19T09:25:26.569Z,1.00
2023-01-19T09:27:53.694Z,0.50
2023-01-19T09:30:20.735Z,0.82
2023-01-19T09:32:47.719Z,1.00
2023-01-19T09:35:14.722Z,0.75
2023-01-19T09:37:45.611Z,0.73
2023-01-19T09:40:13.643Z,0.63
2023-01-19T09:42:46.134Z,1.05
2023-01-19T09:45:31.587Z,0.85
2023-01-19T09:48:00.351Z,0.60
2023-01-19T09:50:36.885Z,0.75
2023-01-19T09:53:21.579Z,0.97
2023-01-19T09:55:48.474Z,0.70
2023-01-19T09:58:18.592Z,0.50
2023-01-19T10:01:35.297Z,1.20
2023-01-19T10:04:39.081Z,0.30
2023-01-19T10:07:11.380Z,0.80
2023-01-19T10:10:15.161Z,0.60
2023-01-19T10:12:51.968Z,0.50
2023-01-19T10:15:42.575Z,1.15
2023-01-19T10:18:19.255Z,0.60
2023-01-19T10:21:00.456Z,0.70
2023-01-19T10:23:46.299Z,0.52
2023-01-19T10:26:21.438Z,0.77
2023-01-19T10:28:50.891Z,0.60
2023-01-19T10:31:20.194Z,0.52
2023-01-19T10:33:48.623Z,0.50
2023-01-19T10:36:30.037Z,0.98
2023-01-19T10:38:58.535Z,1.65
2023-01-19T10:41:39.512Z,0.60
2023-01-19T10:44:06.463Z,1.23
2023-01-19T10:46:35.618Z,0.67
2023-01-19T10:49:02.998Z,0.68
2023-01-19T10:51:29.975Z,0.55
2023-01-19T10:54:02.640Z,1.00
2023-01-19T10:56:38.738Z,0.68
2023-01-19T10:59:07.477Z,0.67
2023-01-19T11:01:37.409Z,0.45
2023-01-19T11:04:29.990Z,0.40
2023-01-19T11:07:30.666Z,0.80
2023-01-19T11:10:15.907Z,0.60
2023-01-19T11:12:43.919Z,0.67
2023-01-19T11:15:23.242Z,0.57
2023-01-19T11:17:50.982Z,0.60
2023-01-19T11:20:20.060Z,0.55
2023-01-19T11:22:48.791Z,0.47
2023-01-19T11:25:28.182Z,0.40
2023-01-19T11:27:55.336Z,0.60
2023-01-19T11:30:27.153Z,0.55
2023-01-19T11:32:54.751Z,1.13
2023-01-19T11:35:35.737Z,0.57
2023-01-19T11:38:23.720Z,0.30
2023-01-19T11:41:04.339Z,0.73
2023-01-19T11:43:43.554Z,0.57
2023-01-19T11:46:17.895Z,0.50
2023-01-19T11:49:03.209Z,0.40
2023-01-19T11:51:53.018Z,0.37
2023-01-19T11:54:25.960Z,0.55
2023-01-19T11:56:56.171Z,0.30
2023-01-19T11:59:25.253Z,0.40
2023-01-19T12:02:02.770Z,0.40
2023-01-19T12:04:36.825Z,0.60
2023-01-19T12:07:10.764Z,0.63
2023-01-19T12:09:47.668Z,0.50
2023-01-19T12:12:33.151Z,0.60
2023-01-19T12:15:17.765Z,0.50
2023-01-19T12:17:49.365Z,0.37
2023-01-19T12:20:25.743Z,0.55
2023-01-19T12:23:08.232Z,0.40
2023-01-19T12:26:12.327Z,0.50
2023-01-19T12:28:42.722Z,0.40
2023-01-19T12:31:10.145Z,0.30
2023-01-19T12:33:40.430Z,0.70
2023-01-19T12:36:41.407Z,0.77
2023-01-19T12:39:20.212Z,0.40
2023-01-19T12:41:48.437Z,0.40
2023-01-19T12:44:21.699Z,0.23
2023-01-19T12:46:54.754Z,0.73
2023-01-19T12:49:25.128Z,0.60
2023-01-19T12:51:56.369Z,0.40
2023-01-19T12:54:33.153Z,0.43
2023-01-19T12:57:05.360Z,0.30
2023-01-19T12:59:36.074Z,0.50
2023-01-19T13:02:21.245Z,0.77
2023-01-19T13:05:06.936Z,0.50
2023-01-19T13:08:02.694Z,0.38
2023-01-19T13:10:56.830Z,0.60
2023-01-19T13:13:42.400Z,0.40
2023-01-19T13:16:18.710Z,0.40
2023-01-19T13:19:02.080Z,0.40
2023-01-19T13:21:45.292Z,0.43
2023-01-19T13:24:15.121Z,0.40
2023-01-19T13:26:51.655Z,0.47
2023-01-19T13:29:41.574Z,0.35
2023-01-19T13:32:18.967Z,0.40
2023-01-19T13:34:51.275Z,0.50
2023-01-19T13:37:26.062Z,0.50
2023-01-19T13:39:55.188Z,0.30
2023-01-19T13:42:36.514Z,1.00
2023-01-19T13:45:28.569Z,0.30
2023-01-19T13:47:59.137Z,0.30
2023-01-19T13:50:27.851Z,0.30
2023-01-19T13:52:56.872Z,0.55
2023-01-19T13:55:25.172Z,0.43
2023-01-19T13:57:53.137Z,0.32
2023-01-19T14:00:28.887Z,0.40
2023-01-19T14:03:02.329Z,0.53
2023-01-19T14:05:35.195Z,0.52
2023-01-19T14:08:14.023Z,0.45
2023-01-19T14:11:04.499Z,0.40
2023-01-19T14:13:43.342Z,0.40
2023-01-19T14:16:17.710Z,0.40
2023-01-19T14:18:44.710Z,0.43
2023-01-19T14:21:14.007Z,0.85
2023-01-19T14:23:43.913Z,0.57
2023-01-19T14:26:48.493Z,0.75
2023-01-19T14:29:29.052Z,0.60
2023-01-19T14:32:02.040Z,0.52
2023-01-19T14:34:41.654Z,0.30
2023-01-19T14:37:28.672Z,0.52
2023-01-19T14:39:55.622Z,0.70
2023-01-19T14:42:31.057Z,0.53
2023-01-19T14:45:02.094Z,0.50
2023-01-19T14:47:37.409Z,0.60
2023-01-19T14:50:27.158Z,0.40
2023-01-19T14:53:04.921Z,0.38
2023-01-19T14:55:52.623Z,0.60
2023-01-19T14:58:21.953Z,0.95
2023-01-19T15:00:50.163Z,0.45
2023-01-19T15:03:17.482Z,0.40
2023-01-19T15:05:46.566Z,0.50
2023-01-19T15:08:34.838Z,0.67
2023-01-19T15:11:21.576Z,0.85
2023-01-19T15:13:49.534Z,0.40
2023-01-19T15:16:17.049Z,0.50
2023-01-19T15:18:44.167Z,0.65
2023-01-19T15:21:27.016Z,0.60
2023-01-19T15:23:54.974Z,0.47
2023-01-19T15:26:24.702Z,0.68
2023-01-19T15:28:52.845Z,0.63
2023-01-19T15:31:22.996Z,0.82
2023-01-19T15:33:50.718Z,0.43
2023-01-19T15:36:24.583Z,0.47
2023-01-19T15:38:51.785Z,0.45
2023-01-19T15:41:33.482Z,0.30
2023-01-19T15:44:01.381Z,0.40
2023-01-19T15:46:29.032Z,0.83
2023-01-19T15:48:56.679Z,0.30
2023-01-19T15:51:26.948Z,0.60
2023-01-19T15:53:55.614Z,0.60
2023-01-19T15:56:29.157Z,0.50
2023-01-19T15:59:00.653Z,0.50
2023-01-19T16:01:36.332Z,1.00
2023-01-19T16:04:08.303Z,0.30
2023-01-19T16:06:39.001Z,0.70
2023-01-19T16:09:06.227Z,0.60
2023-01-19T16:11:34.757Z,0.57
2023-01-19T16:14:02.662Z,0.68
2023-01-19T16:16:30.608Z,0.45
2023-01-19T16:33:46.561Z,0.60
2023-01-19T16:36:22.984Z,0.60
2023-01-19T16:38:57.729Z,0.63
2023-01-19T16:41:27.650Z,0.45
2023-01-19T16:43:57.461Z,0.60
2023-01-19T16:46:37.828Z,0.55
2023-01-19T16:49:07.829Z,0.95
2023-01-19T16:51:35.682Z,0.60
2023-01-19T16:54:03.695Z,0.68
2023-01-19T16:56:31.696Z,0.40
2023-01-19T16:59:03.615Z,0.60
2023-01-19T17:01:32.043Z,1.08
2023-01-19T17:03:59.847Z,0.40
2023-01-19T17:06:28.267Z,0.60
2023-01-19T17:08:56.396Z,0.47
2023-01-19T17:11:29.527Z,0.63
2023-01-19T17:14:03.006Z,0.95
2023-01-19T17:16:32.163Z,0.50
2023-01-19T17:19:02.031Z,0.80
2023-01-19T17:21:30.098Z,1.15
2023-01-19T17:23:58.185Z,0.90
2023-01-19T17:26:28.488Z,1.25
2023-01-19T17:29:04.017Z,1.00
2023-01-19T17:31:32.397Z,1.73
2023-01-19T17:34:00.304Z,1.67
2023-01-19T17:36:28.876Z,1.33
2023-01-19T17:38:58.587Z,1.50
2023-01-19T17:41:30.641Z,1.23
2023-01-19T17:44:01.021Z,1.27
2023-01-19T17:46:29.509Z,1.52
2023-01-19T17:48:59.349Z,2.00
2023-01-19T17:51:26.801Z,1.80
2023-01-19T17:53:54.404Z,1.77
2023-01-19T17:56:27.823Z,1.40
2023-01-19T17:58:55.392Z,1.08
2023-01-19T18:01:28.341Z,1.60
2023-01-19T18:03:56.041Z,1.40
2023-01-19T18:06:23.494Z,0.97
2023-01-19T18:08:50.745Z,1.33
2023-01-19T18:11:20.070Z,1.17
2023-01-19T18:13:48.617Z,1.00
2023-01-19T18:16:27.616Z,1.90
2023-01-19T18:18:56.678Z,1.80
2023-01-19T18:21:27.538Z,2.08
2023-01-19T18:24:04.551Z,2.03
2023-01-19T18:26:33.506Z,2.90
2023-01-19T18:29:01.181Z,2.72
2023-01-19T18:31:30.145Z,3.90
2023-01-19T18:33:57.230Z,5.57
2023-01-19T18:36:24.191Z,6.32
2023-01-19T18:38:51.846Z,6.45
2023-01-19T18:41:21.006Z,5.97
2023-01-19T18:43:48.963Z,6.10
2023-01-19T18:46:16.465Z,6.63
2023-01-19T18:48:43.831Z,6.95
2023-01-19T18:51:15.315Z,7.15
2023-01-19T18:53:43.023Z,6.10
2023-01-19T18:56:13.512Z,6.13
2023-01-19T18:58:40.764Z,6.95
2023-01-19T19:01:32.420Z,6.47
2023-01-19T19:04:00.041Z,6.63
2023-01-19T19:06:27.687Z,5.78
2023-01-19T19:08:56.597Z,5.80
2023-01-19T19:11:25.143Z,4.93
2023-01-19T19:14:01.137Z,5.78
2023-01-19T19:16:29.828Z,5.43
2023-01-19T19:18:56.996Z,5.10
2023-01-19T19:21:25.655Z,5.53
2023-01-19T19:23:57.644Z,5.85
2023-01-19T19:26:25.955Z,5.47
2023-01-19T19:28:52.956Z,4.65
2023-01-19T19:31:22.315Z,3.60
2023-01-19T19:33:51.347Z,2.90
2023-01-19T19:36:20.110Z,2.55
2023-01-19T19:38:48.303Z,2.42
2023-01-19T19:41:18.804Z,2.53
2023-01-19T19:43:45.784Z,2.25
2023-01-19T19:46:14.346Z,2.30
2023-01-19T19:48:41.924Z,1.85
2023-01-19T19:51:18.989Z,2.20
2023-01-19T19:53:49.038Z,1.65
2023-01-19T19:56:21.345Z,1.63
2023-01-19T19:58:49.575Z,1.97
2023-01-19T20:01:19.718Z,1.77
2023-01-19T20:03:47.183Z,1.15
2023-01-19T20:06:21.705Z,0.80
2023-01-19T20:08:53.845Z,0.90
2023-01-19T20:11:26.609Z,0.67
2023-01-19T20:13:54.841Z,1.23
2023-01-19T20:16:24.478Z,0.65
2023-01-19T20:18:58.040Z,0.50
2023-01-19T20:21:46.005Z,0.57
2023-01-19T20:24:14.024Z,0.50
2023-01-19T20:27:00.897Z,1.02
2023-01-19T20:29:28.032Z,1.10
2023-01-19T20:31:58.653Z,1.00
2023-01-19T20:39:59.037Z,0.85
2023-01-19T20:42:26.157Z,0.80
2023-01-19T20:44:53.189Z,0.47
2023-01-19T20:47:24.199Z,0.52
2023-01-19T20:49:51.379Z,0.30
2023-01-19T20:52:18.706Z,0.30
2023-01-19T20:54:46.596Z,0.60
2023-01-19T21:00:45.261Z,0.60
2023-01-19T21:03:36.962Z,0.50
2023-01-19T21:09:09.710Z,0.50
2023-01-19T22:19:55.801Z,2.45
2023-01-19T22:22:38.641Z,3.38
2023-01-19T22:25:13.888Z,4.00
2023-01-19T22:27:47.993Z,3.47
2023-01-19T22:30:15.317Z,3.72
2023-01-19T22:32:42.386Z,3.65
2023-01-19T22:35:09.706Z,3.65
2023-01-19T22:37:37.821Z,3.85
2023-01-19T22:40:06.127Z,3.77
2023-01-19T22:42:33.289Z,2.97
2023-01-19T22:45:00.369Z,3.75
2023-01-19T22:47:27.536Z,3.30
2023-01-19T22:49:56.531Z,3.40
2023-01-19T22:52:23.476Z,3.10
2023-01-19T22:54:53.494Z,3.45
2023-01-19T22:57:21.495Z,3.28
2023-01-19T22:59:56.490Z,3.40
2023-01-19T23:02:24.836Z,3.17
2023-01-19T23:04:56.038Z,2.87
2023-01-19T23:07:24.021Z,3.42
2023-01-19T23:09:52.793Z,3.42
2023-01-19T23:12:25.486Z,3.40
2023-01-19T23:14:58.724Z,3.88
2023-01-19T23:20:34.806Z,3.50
2023-01-19T23:23:09.292Z,3.85
2023-01-19T23:25:37.363Z,3.67
2023-01-19T23:28:05.545Z,3.35
2023-01-19T23:30:32.968Z,3.30
2023-01-19T23:33:07.056Z,2.95
2023-01-19T23:35:35.690Z,3.72
2023-01-19T23:38:02.686Z,3.78
2023-01-19T23:40:30.080Z,3.75
2023-01-19T23:48:13.644Z,2.67
2023-01-19T23:50:41.405Z,3.05
2023-01-19T23:53:08.336Z,3.75
2023-01-19T23:55:35.276Z,2.70
2023-01-19T23:58:02.374Z,2.72
